Time;durP1;ratioP1;P1;durP2;ratioP2;P2;SDS_P1;SDS_P2;PMS_P1;PMS_P2;Temp;Humidity;BMP_temperature;BMP_pressure;BME280_temperature;BME280_humidity;BME280_pressure;Samples;Min_cycle;Max_cycle;Signal;HPM_P1;HPM_P2
2023/01/22 00:01:59;;;;;;;30.13;11.57;;;1.20;99.90;;;;;;5230884;28;20194;-46
2023/01/22 00:04:30;;;;;;;25.93;11.47;;;1.10;99.90;;;;;;5201957;28;20208;-49
2023/01/22 00:07:00;;;;;;;27.33;11.50;;;1.20;99.90;;;;;;5210877;28;20218;-47
2023/01/22 00:09:31;;;;;;;25.27;12.30;;;1.10;99.90;;;;;;5210603;28;20439;-47
2023/01/22 00:12:02;;;;;;;28.43;12.90;;;1.20;99.90;;;;;;5221148;28;20217;-45
2023/01/22 00:14:33;;;;;;;35.83;15.77;;;1.20;99.90;;;;;;5210305;28;20230;-47
2023/01/22 00:17:03;;;;;;;36.13;12.27;;;1.20;99.90;;;;;;5224335;28;20189;-45
2023/01/22 00:19:34;;;;;;;20.30;11.87;;;1.10;99.90;;;;;;5209673;28;20185;-47
2023/01/22 00:22:05;;;;;;;18.87;10.83;;;1.10;99.90;;;;;;5226514;28;20422;-47
2023/01/22 00:24:36;;;;;;;21.67;9.90;;;1.00;99.90;;;;;;5204293;28;21145;-45
2023/01/22 00:27:07;;;;;;;47.77;16.03;;;1.10;99.90;;;;;;5227892;28;20187;-46
2023/01/22 00:29:37;;;;;;;18.97;10.67;;;1.10;99.90;;;;;;5215963;28;20934;-46
2023/01/22 00:32:08;;;;;;;27.53;13.03;;;1.20;99.90;;;;;;5208296;28;20210;-46
2023/01/22 00:34:38;;;;;;;40.23;13.87;;;1.10;99.90;;;;;;5194407;28;20616;-46
2023/01/22 00:37:09;;;;;;;31.83;12.10;;;1.10;99.90;;;;;;5209858;28;20198;-47
2023/01/22 00:39:40;;;;;;;30.60;12.90;;;1.10;99.90;;;;;;5220568;28;20183;-47
2023/01/22 00:42:10;;;;;;;18.10;10.60;;;1.10;99.90;;;;;;5205704;28;20192;-47
2023/01/22 00:44:41;;;;;;;31.50;13.17;;;1.10;99.90;;;;;;5224586;28;20705;-48
2023/01/22 00:47:12;;;;;;;21.80;11.60;;;1.10;99.90;;;;;;5209999;28;20195;-46
2023/01/22 00:49:42;;;;;;;20.40;10.70;;;1.10;99.90;;;;;;5209026;28;20187;-47
2023/01/22 00:52:13;;;;;;;28.37;12.50;;;1.20;99.90;;;;;;5207665;28;20216;-45
2023/01/22 00:54:44;;;;;;;39.90;13.33;;;1.20;99.90;;;;;;5220726;28;20219;-45
2023/01/22 00:57:18;;;;;;;24.60;11.20;;;1.20;99.90;;;;;;5228430;28;20698;-45
2023/01/22 00:59:50;;;;;;;24.60;11.73;;;1.10;99.90;;;;;;5227463;28;20447;-45
2023/01/22 01:02:21;;;;;;;18.17;10.60;;;1.20;99.90;;;;;;5209497;28;20448;-46
2023/01/22 01:04:52;;;;;;;13.73;8.63;;;1.10;99.90;;;;;;5226857;28;20467;-49
2023/01/22 01:07:23;;;;;;;12.70;8.27;;;1.10;99.90;;;;;;5208060;28;20201;-44
2023/01/22 01:09:53;;;;;;;23.53;11.80;;;1.10;99.90;;;;;;5223197;28;20190;-45
2023/01/22 01:12:24;;;;;;;27.37;11.40;;;1.10;99.90;;;;;;5201587;28;20212;-48
2023/01/22 01:14:55;;;;;;;17.57;10.70;;;1.00;99.90;;;;;;5227076;28;20203;-46
2023/01/22 01:17:25;;;;;;;24.83;11.33;;;1.00;99.90;;;;;;5226642;28;20236;-47
2023/01/22 01:19:56;;;;;;;20.90;10.60;;;1.00;99.90;;;;;;5204640;28;20475;-46
2023/01/22 01:22:27;;;;;;;26.30;10.27;;;1.00;99.90;;;;;;5222129;28;20266;-46
2023/01/22 01:24:58;;;;;;;23.67;11.47;;;1.00;99.90;;;;;;5223448;28;20248;-46
2023/01/22 01:27:30;;;;;;;17.10;9.97;;;1.00;99.90;;;;;;5222123;28;20904;-44
2023/01/22 01:30:01;;;;;;;23.80;11.70;;;1.00;99.90;;;;;;5222670;28;20198;-46
2023/01/22 01:32:31;;;;;;;33.93;14.80;;;0.90;99.90;;;;;;5211436;28;20558;-46
2023/01/22 01:35:02;;;;;;;26.20;13.70;;;0.90;99.90;;;;;;5224964;28;20273;-45
2023/01/22 01:37:33;;;;;;;21.67;12.00;;;0.90;99.90;;;;;;5191947;28;20188;-48
2023/01/22 01:40:04;;;;;;;22.27;12.43;;;1.00;99.90;;;;;;5239824;28;20445;-45
2023/01/22 01:42:38;;;;;;;30.70;14.50;;;1.00;99.90;;;;;;5229219;28;20547;-46
2023/01/22 01:45:32;;;;;;;27.03;12.70;;;1.10;99.90;;;;;;5226957;28;20891;-47
2023/01/22 01:48:27;;;;;;;25.10;13.03;;;1.10;99.90;;;;;;5223174;28;20463;-44
2023/01/22 01:51:32;;;;;;;30.70;13.57;;;1.00;99.90;;;;;;5197045;28;20449;-45
2023/01/22 01:54:04;;;;;;;19.30;11.67;;;1.00;99.90;;;;;;5204679;28;20872;-47
2023/01/22 01:56:43;;;;;;;21.50;12.43;;;1.00;99.90;;;;;;5225810;28;20510;-49
2023/01/22 01:59:17;;;;;;;24.07;12.50;;;1.00;99.90;;;;;;5220368;28;20442;-46
2023/01/22 02:01:52;;;;;;;22.93;12.50;;;1.10;99.90;;;;;;5208217;28;20437;-47
2023/01/22 02:04:23;;;;;;;24.53;12.70;;;1.00;99.90;;;;;;5218679;28;20466;-46
2023/01/22 02:06:54;;;;;;;17.77;10.40;;;1.00;99.90;;;;;;5208368;28;20531;-45
2023/01/22 02:09:25;;;;;;;18.47;10.63;;;1.00;99.90;;;;;;5213287;28;20533;-45
2023/01/22 02:11:56;;;;;;;21.67;13.07;;;1.00;99.90;;;;;;5208570;28;20189;-46
2023/01/22 02:14:31;;;;;;;28.10;14.13;;;1.00;99.90;;;;;;5214836;28;20453;-46
2023/01/22 02:17:15;;;;;;;28.53;12.13;;;1.10;99.90;;;;;;5214681;28;20432;-46
2023/01/22 02:19:46;;;;;;;15.60;8.60;;;1.00;99.90;;;;;;5222914;28;20457;-45
2023/01/22 02:22:23;;;;;;;22.07;11.33;;;1.00;99.90;;;;;;5198686;28;20461;-46
2023/01/22 02:24:53;;;;;;;22.77;12.57;;;1.10;99.90;;;;;;5222777;28;20464;-45
2023/01/22 02:27:24;;;;;;;21.97;12.13;;;1.00;99.90;;;;;;5213138;28;20431;-45
2023/01/22 02:29:55;;;;;;;29.00;12.77;;;1.00;99.90;;;;;;5225575;28;20188;-46
2023/01/22 02:32:27;;;;;;;30.47;14.17;;;1.00;99.90;;;;;;5210896;28;20249;-46
2023/01/22 02:34:58;;;;;;;22.17;11.77;;;1.00;99.90;;;;;;5228329;28;20256;-46
2023/01/22 02:37:29;;;;;;;32.17;12.37;;;1.00;99.90;;;;;;5221933;28;20433;-46
2023/01/22 02:40:00;;;;;;;20.27;10.43;;;1.00;99.90;;;;;;5222881;28;20674;-45
2023/01/22 02:42:31;;;;;;;26.23;12.50;;;1.00;99.90;;;;;;5222524;28;20433;-49
2023/01/22 02:45:01;;;;;;;15.80;10.00;;;1.00;99.90;;;;;;5223994;28;20254;-45
2023/01/22 02:47:34;;;;;;;20.53;11.33;;;1.00;99.90;;;;;;5215174;28;20187;-46
2023/01/22 02:50:05;;;;;;;23.23;11.43;;;1.00;99.90;;;;;;5210313;28;20184;-50
2023/01/22 02:52:36;;;;;;;20.80;10.57;;;0.90;99.90;;;;;;5226922;28;20461;-47
2023/01/22 02:55:07;;;;;;;20.83;11.10;;;1.00;99.90;;;;;;5227010;28;20564;-45
2023/01/22 02:57:38;;;;;;;20.37;11.67;;;0.90;99.90;;;;;;5223752;28;20178;-47
2023/01/22 03:00:09;;;;;;;19.90;11.77;;;0.90;99.90;;;;;;5199472;28;20945;-49
2023/01/22 03:02:40;;;;;;;15.67;10.90;;;1.00;99.90;;;;;;5228824;28;20174;-48
2023/01/22 03:05:11;;;;;;;18.70;10.73;;;0.90;99.90;;;;;;5211541;28;20545;-46
2023/01/22 03:07:43;;;;;;;13.77;10.30;;;1.00;99.90;;;;;;5226623;28;20215;-44
2023/01/22 03:10:17;;;;;;;18.17;12.23;;;0.90;99.90;;;;;;5224756;28;20646;-46
2023/01/22 03:21:20;;;;;;;23.17;11.80;;;0.90;99.90;;;;;;5220227;28;20489;-48
2023/01/22 03:23:52;;;;;;;15.00;8.87;;;0.90;99.90;;;;;;5222194;28;20446;-45
2023/01/22 03:26:23;;;;;;;15.53;10.30;;;0.90;99.90;;;;;;5217089;28;20441;-48
2023/01/22 03:28:54;;;;;;;21.03;11.40;;;0.90;99.90;;;;;;5209879;28;20447;-47
2023/01/22 03:31:25;;;;;;;14.50;10.50;;;0.90;99.90;;;;;;5202643;28;20175;-45
2023/01/22 03:33:56;;;;;;;26.00;13.27;;;0.90;99.90;;;;;;5217625;28;20211;-46
2023/01/22 03:36:27;;;;;;;12.13;10.00;;;0.90;99.90;;;;;;5194299;28;20577;-46
2023/01/22 03:38:59;;;;;;;14.13;10.10;;;0.90;99.90;;;;;;5210589;28;20444;-47
2023/01/22 03:41:29;;;;;;;18.60;11.50;;;0.90;99.90;;;;;;5227167;28;20291;-48
2023/01/22 03:44:02;;;;;;;20.03;13.23;;;0.80;99.90;;;;;;5205711;28;20518;-46
2023/01/22 03:46:33;;;;;;;23.47;12.87;;;0.90;99.90;;;;;;5230346;28;20237;-48
2023/01/22 03:49:04;;;;;;;23.03;13.10;;;0.90;99.90;;;;;;5224139;28;20445;-48
2023/01/22 03:51:36;;;;;;;19.80;11.13;;;0.90;99.90;;;;;;5206477;28;20435;-48
2023/01/22 03:54:09;;;;;;;16.80;11.33;;;0.90;99.90;;;;;;5210722;28;20523;-45
2023/01/22 03:56:40;;;;;;;21.97;12.10;;;0.90;99.90;;;;;;5228962;28;20805;-46
2023/01/22 03:59:11;;;;;;;23.73;10.83;;;1.00;99.90;;;;;;5211732;28;20445;-43
2023/01/22 04:01:42;;;;;;;22.03;13.40;;;0.90;99.90;;;;;;5221106;28;20484;-47
2023/01/22 04:04:12;;;;;;;30.50;15.10;;;0.90;99.90;;;;;;5220759;28;20812;-48
2023/01/22 04:06:43;;;;;;;15.80;10.00;;;0.90;99.90;;;;;;5222942;28;20271;-45
2023/01/22 04:09:14;;;;;;;16.07;11.97;;;0.90;99.90;;;;;;5211715;28;20191;-49
2023/01/22 04:11:45;;;;;;;15.63;11.40;;;0.90;99.90;;;;;;5224423;28;20628;-48
2023/01/22 04:14:15;;;;;;;26.80;12.50;;;0.90;99.90;;;;;;5213931;28;20478;-48
2023/01/22 04:16:46;;;;;;;18.40;12.50;;;0.90;99.90;;;;;;5226202;28;20270;-49
2023/01/22 04:19:17;;;;;;;19.20;12.50;;;0.90;99.90;;;;;;5209579;28;20271;-49
2023/01/22 04:21:47;;;;;;;28.00;14.63;;;0.90;99.90;;;;;;5221365;28;20629;-47
2023/01/22 04:24:18;;;;;;;19.50;12.30;;;0.90;99.90;;;;;;5227203;28;20214;-49
2023/01/22 04:26:49;;;;;;;22.37;13.37;;;0.90;99.90;;;;;;5219358;28;20671;-49
2023/01/22 04:29:20;;;;;;;32.67;17.87;;;0.90;99.90;;;;;;5208816;28;20179;-48
2023/01/22 04:31:50;;;;;;;17.70;13.10;;;0.90;99.90;;;;;;5213538;28;20187;-49
2023/01/22 04:34:21;;;;;;;21.37;14.50;;;0.80;99.90;;;;;;5214042;28;21060;-50
2023/01/22 04:36:52;;;;;;;23.00;14.50;;;0.90;99.90;;;;;;5223968;28;20229;-49
2023/01/22 04:39:22;;;;;;;29.13;16.40;;;0.90;99.90;;;;;;5206083;28;20184;-51
2023/01/22 04:41:53;;;;;;;28.77;15.00;;;0.90;99.90;;;;;;5223036;28;20218;-45
2023/01/22 04:44:23;;;;;;;29.93;14.60;;;0.90;99.90;;;;;;5214739;28;20203;-49
2023/01/22 04:46:54;;;;;;;31.60;16.30;;;0.90;99.90;;;;;;5216405;28;20187;-49
2023/01/22 04:49:25;;;;;;;21.70;14.27;;;0.90;99.90;;;;;;5227096;28;20191;-49
2023/01/22 04:51:56;;;;;;;19.17;13.77;;;0.90;99.90;;;;;;5213514;28;20183;-49
2023/01/22 04:54:26;;;;;;;26.87;14.27;;;0.90;99.90;;;;;;5224430;28;20233;-50
2023/01/22 04:56:57;;;;;;;29.97;16.53;;;0.80;99.90;;;;;;5208149;28;20430;-47
2023/01/22 04:59:28;;;;;;;23.00;14.57;;;0.90;99.90;;;;;;5210520;28;20715;-49
2023/01/22 05:01:58;;;;;;;28.80;15.67;;;0.90;99.90;;;;;;5221807;28;20179;-50
2023/01/22 05:04:29;;;;;;;31.83;16.17;;;0.90;99.90;;;;;;5222492;28;20617;-48
2023/01/22 05:07:00;;;;;;;29.43;16.27;;;0.90;99.90;;;;;;5206855;28;20228;-48
2023/01/22 05:09:30;;;;;;;29.23;16.30;;;0.90;99.90;;;;;;5214462;28;20181;-50
2023/01/22 05:12:01;;;;;;;30.57;14.40;;;0.90;99.90;;;;;;5207248;28;20180;-46
2023/01/22 05:14:32;;;;;;;29.03;15.27;;;0.90;99.90;;;;;;5223636;28;20252;-50
2023/01/22 05:17:02;;;;;;;30.90;16.10;;;0.90;99.90;;;;;;5221756;28;20178;-48
2023/01/22 05:19:34;;;;;;;22.97;15.70;;;0.90;99.90;;;;;;5202184;28;20227;-48
2023/01/22 05:22:05;;;;;;;22.87;13.13;;;0.90;99.90;;;;;;5223075;28;20176;-48
2023/01/22 05:24:35;;;;;;;23.20;14.60;;;0.90;99.90;;;;;;5200764;28;20585;-48
2023/01/22 05:27:06;;;;;;;18.10;12.30;;;0.90;99.90;;;;;;5212897;28;20190;-48
2023/01/22 05:29:37;;;;;;;28.00;14.33;;;0.90;99.90;;;;;;5219278;28;20722;-49
2023/01/22 05:32:07;;;;;;;20.07;13.70;;;0.90;99.90;;;;;;5223611;28;20221;-49
2023/01/22 05:34:38;;;;;;;20.67;13.60;;;0.90;99.90;;;;;;5206107;28;20209;-49
2023/01/22 05:37:09;;;;;;;22.57;13.20;;;0.90;99.90;;;;;;5199530;28;20189;-49
2023/01/22 05:39:39;;;;;;;25.57;12.10;;;0.80;99.90;;;;;;5205700;28;20178;-49
2023/01/22 05:42:14;;;;;;;18.63;12.90;;;0.90;99.90;;;;;;5219908;28;20214;-49
2023/01/22 05:44:44;;;;;;;17.13;12.40;;;0.90;99.90;;;;;;5224169;28;20926;-50
2023/01/22 05:47:15;;;;;;;15.77;11.50;;;0.90;99.90;;;;;;5224125;28;20545;-49
2023/01/22 05:49:46;;;;;;;14.13;11.70;;;1.00;99.90;;;;;;5217126;28;20223;-46
2023/01/22 05:52:16;;;;;;;15.57;10.00;;;0.90;99.90;;;;;;5204301;28;20205;-49
2023/01/22 05:54:47;;;;;;;16.67;11.93;;;0.90;99.90;;;;;;5221370;28;20218;-49
2023/01/22 05:57:18;;;;;;;17.60;11.80;;;0.90;99.90;;;;;;5211773;28;20660;-48
2023/01/22 05:59:48;;;;;;;19.50;11.80;;;0.90;99.90;;;;;;5227857;28;20656;-47
2023/01/22 06:02:19;;;;;;;16.70;11.17;;;0.80;99.90;;;;;;5218516;28;20214;-48
2023/01/22 06:04:50;;;;;;;13.20;10.13;;;0.80;99.90;;;;;;5209464;28;20621;-49
2023/01/22 06:07:20;;;;;;;18.00;12.00;;;0.80;99.90;;;;;;5206795;28;20186;-50
2023/01/22 06:09:51;;;;;;;15.63;12.23;;;0.90;99.90;;;;;;5230535;28;20180;-49
2023/01/22 06:12:22;;;;;;;17.87;11.40;;;0.80;99.90;;;;;;5208426;28;20196;-46
2023/01/22 06:14:53;;;;;;;20.70;13.13;;;0.80;99.90;;;;;;5228863;28;20649;-47
2023/01/22 06:17:23;;;;;;;18.67;13.50;;;0.90;99.90;;;;;;5213518;28;21040;-44
2023/01/22 06:19:54;;;;;;;20.20;12.47;;;0.80;99.90;;;;;;5203562;28;20229;-45
2023/01/22 06:22:25;;;;;;;19.90;13.43;;;0.80;99.90;;;;;;5209731;28;20180;-45
2023/01/22 06:24:55;;;;;;;17.43;12.00;;;0.80;99.90;;;;;;5216323;28;20242;-46
2023/01/22 06:27:26;;;;;;;25.83;15.00;;;0.80;99.90;;;;;;5210906;28;20179;-45
2023/01/22 06:29:57;;;;;;;23.90;12.83;;;0.90;99.90;;;;;;5227473;28;20538;-46
2023/01/22 06:32:27;;;;;;;17.17;12.30;;;0.90;99.90;;;;;;5211019;28;20203;-47
2023/01/22 06:34:58;;;;;;;23.80;13.70;;;0.90;99.90;;;;;;5221599;28;20215;-46
2023/01/22 06:37:28;;;;;;;19.07;12.47;;;0.90;99.90;;;;;;5231013;28;20175;-45
2023/01/22 06:39:59;;;;;;;16.97;10.90;;;0.90;99.90;;;;;;5207854;28;20178;-45
2023/01/22 06:42:30;;;;;;;15.07;11.63;;;0.90;99.90;;;;;;5227450;28;20195;-45
2023/01/22 06:45:02;;;;;;;14.00;11.10;;;0.90;99.90;;;;;;5214370;28;20224;-50
2023/01/22 06:47:32;;;;;;;14.57;11.00;;;0.90;99.90;;;;;;5220130;28;20452;-46
2023/01/22 06:50:04;;;;;;;18.23;12.20;;;0.90;99.90;;;;;;5214635;28;20207;-45
2023/01/22 06:52:34;;;;;;;16.60;11.40;;;0.90;99.90;;;;;;5209025;28;20205;-45
2023/01/22 06:55:05;;;;;;;12.00;10.20;;;0.90;99.90;;;;;;5223791;28;20522;-50
2023/01/22 06:57:36;;;;;;;16.80;11.47;;;0.90;99.90;;;;;;5216597;28;20238;-45
2023/01/22 07:00:07;;;;;;;13.10;10.63;;;0.90;99.90;;;;;;5230477;28;20191;-46
2023/01/22 07:02:38;;;;;;;12.93;10.27;;;0.90;99.90;;;;;;5208190;28;20192;-45
2023/01/22 07:05:08;;;;;;;20.23;11.00;;;0.90;99.90;;;;;;5213627;28;21065;-46
2023/01/22 07:07:39;;;;;;;12.97;9.57;;;0.90;99.90;;;;;;5210882;28;20274;-44
2023/01/22 07:10:10;;;;;;;11.27;9.93;;;1.00;99.90;;;;;;5211192;28;20199;-46
2023/01/22 07:12:41;;;;;;;12.53;9.73;;;0.90;99.90;;;;;;5209016;28;20707;-48
2023/01/22 07:15:12;;;;;;;9.30;7.87;;;1.00;99.90;;;;;;5213559;28;20206;-47
2023/01/22 07:17:42;;;;;;;13.60;9.53;;;1.00;99.90;;;;;;5204517;28;20240;-45
2023/01/22 07:20:13;;;;;;;12.47;9.60;;;1.00;99.90;;;;;;5210639;28;20438;-47
2023/01/22 07:22:44;;;;;;;12.40;8.90;;;1.00;99.90;;;;;;5210157;28;20185;-46
2023/01/22 07:25:14;;;;;;;13.03;9.30;;;0.90;99.90;;;;;;5225694;28;20766;-46
2023/01/22 07:27:45;;;;;;;12.10;9.07;;;1.00;99.90;;;;;;5210452;28;20308;-46
2023/01/22 07:30:16;;;;;;;13.30;9.00;;;1.00;99.90;;;;;;5223172;28;20189;-45
2023/01/22 07:32:47;;;;;;;10.03;8.33;;;1.10;99.90;;;;;;5209331;28;20259;-46
2023/01/22 07:35:17;;;;;;;14.07;9.00;;;1.00;99.90;;;;;;5210996;28;20489;-46
2023/01/22 07:37:52;;;;;;;9.90;8.40;;;1.10;99.90;;;;;;5193505;28;20179;-47
2023/01/22 07:40:24;;;;;;;14.40;9.10;;;1.00;99.90;;;;;;5215695;28;20480;-45
2023/01/22 07:42:55;;;;;;;10.70;7.97;;;1.00;99.90;;;;;;5203777;28;20811;-48
2023/01/22 07:45:25;;;;;;;13.07;8.27;;;1.00;99.90;;;;;;5213271;28;20466;-48
2023/01/22 07:47:58;;;;;;;8.63;7.40;;;1.10;99.90;;;;;;5194447;28;20499;-48
2023/01/22 07:50:30;;;;;;;13.27;8.33;;;1.10;99.90;;;;;;5209617;28;20644;-46
2023/01/22 07:53:01;;;;;;;13.03;8.53;;;1.10;99.90;;;;;;5194094;28;20518;-46
2023/01/22 07:55:32;;;;;;;11.73;8.30;;;1.10;99.90;;;;;;5209295;28;20467;-46
2023/01/22 07:58:05;;;;;;;7.97;7.03;;;1.20;99.90;;;;;;5206240;28;20611;-47
2023/01/22 08:00:36;;;;;;;10.73;8.17;;;1.10;99.90;;;;;;5224377;28;20189;-51
2023/01/22 08:03:09;;;;;;;10.93;8.43;;;1.20;99.90;;;;;;5225357;28;20519;-47
2023/01/22 08:05:42;;;;;;;9.60;7.60;;;1.20;99.90;;;;;;5194451;28;20589;-47
2023/01/22 08:08:15;;;;;;;9.07;8.17;;;1.20;99.90;;;;;;5221624;28;20429;-45
2023/01/22 08:10:46;;;;;;;14.67;7.60;;;1.30;99.90;;;;;;5202105;28;20443;-47
2023/01/22 08:13:17;;;;;;;9.60;8.00;;;1.30;99.90;;;;;;5221993;28;20799;-51
2023/01/22 08:15:47;;;;;;;9.60;7.20;;;1.30;99.90;;;;;;5206316;28;20203;-46
2023/01/22 08:18:18;;;;;;;9.13;7.73;;;1.30;99.90;;;;;;5212570;28;20607;-45
2023/01/22 08:20:49;;;;;;;14.20;7.87;;;1.30;99.90;;;;;;5222149;28;20191;-45
2023/01/22 08:23:19;;;;;;;8.33;7.47;;;1.40;99.90;;;;;;5206940;28;20662;-46
2023/01/22 08:25:50;;;;;;;7.57;6.80;;;1.30;99.90;;;;;;5210603;28;20205;-45
2023/01/22 08:28:21;;;;;;;10.50;7.10;;;1.40;99.90;;;;;;5219482;28;20198;-46
2023/01/22 08:30:59;;;;;;;10.30;7.00;;;1.40;99.90;;;;;;5209069;28;20521;-46
2023/01/22 08:33:32;;;;;;;6.47;5.90;;;1.40;99.90;;;;;;5216217;28;20285;-45
2023/01/22 08:36:03;;;;;;;9.00;6.90;;;1.40;99.90;;;;;;5220555;28;20545;-45
2023/01/22 08:38:33;;;;;;;9.03;6.63;;;1.40;99.90;;;;;;5215851;28;20539;-46
2023/01/22 08:41:04;;;;;;;7.13;6.47;;;1.40;99.90;;;;;;5206632;28;20187;-46
2023/01/22 08:43:35;;;;;;;9.03;7.60;;;1.40;99.90;;;;;;5220395;28;20266;-46
2023/01/22 08:46:05;;;;;;;8.87;7.63;;;1.40;99.90;;;;;;5219299;28;20199;-47
2023/01/22 08:48:37;;;;;;;8.40;7.20;;;1.50;99.90;;;;;;5221560;28;20278;-47
2023/01/22 08:51:08;;;;;;;8.83;7.80;;;1.40;99.90;;;;;;5187667;28;20262;-47
2023/01/22 08:53:39;;;;;;;10.90;8.03;;;1.60;99.90;;;;;;5221329;28;20555;-49
2023/01/22 08:56:10;;;;;;;13.87;8.50;;;1.50;99.90;;;;;;5215763;28;20469;-46
2023/01/22 08:58:41;;;;;;;10.03;8.00;;;1.50;99.90;;;;;;5218236;28;20600;-47
2023/01/22 09:01:16;;;;;;;10.10;7.30;;;1.60;99.90;;;;;;5218329;28;20195;-48
2023/01/22 09:03:48;;;;;;;12.47;8.17;;;1.60;99.90;;;;;;5205592;28;20185;-46
2023/01/22 09:06:18;;;;;;;9.97;8.97;;;1.60;99.90;;;;;;5204257;28;20453;-48
2023/01/22 09:08:49;;;;;;;11.37;8.30;;;1.60;99.90;;;;;;5202982;28;20446;-45
2023/01/22 09:11:20;;;;;;;12.13;8.80;;;1.50;99.90;;;;;;5215950;28;20179;-51
2023/01/22 09:13:53;;;;;;;8.77;7.87;;;1.60;99.90;;;;;;5224060;28;20211;-47
2023/01/22 09:16:26;;;;;;;10.30;8.93;;;1.60;99.90;;;;;;5219689;28;20218;-46
2023/01/22 09:18:57;;;;;;;12.30;9.03;;;1.60;99.90;;;;;;5216943;28;20448;-46
2023/01/22 09:21:28;;;;;;;9.53;8.57;;;1.70;99.90;;;;;;5210240;28;20444;-46
2023/01/22 09:23:59;;;;;;;9.90;8.27;;;1.60;99.90;;;;;;5221019;28;20518;-50
2023/01/22 09:26:31;;;;;;;11.07;8.87;;;1.70;99.90;;;;;;5219819;28;20207;-44
2023/01/22 09:29:04;;;;;;;13.03;9.30;;;1.70;99.90;;;;;;5207567;28;20503;-48
2023/01/22 09:31:35;;;;;;;8.43;7.33;;;1.70;99.90;;;;;;5219974;28;20447;-46
2023/01/22 09:34:06;;;;;;;8.60;7.13;;;1.70;99.90;;;;;;5190234;28;20472;-47
2023/01/22 09:36:37;;;;;;;8.83;7.90;;;1.70;99.90;;;;;;5227259;28;20966;-49
2023/01/22 09:39:08;;;;;;;9.87;7.57;;;1.70;99.90;;;;;;5222549;28;20185;-46
2023/01/22 09:41:43;;;;;;;11.30;9.57;;;1.70;99.90;;;;;;5217846;28;20183;-48
2023/01/22 09:44:17;;;;;;;12.43;8.60;;;1.70;99.90;;;;;;5183962;28;21532;-49
2023/01/22 09:46:53;;;;;;;11.10;8.60;;;1.70;99.90;;;;;;5219790;28;20441;-47
2023/01/22 09:49:30;;;;;;;12.93;8.00;;;1.70;99.90;;;;;;5197717;28;20448;-48
2023/01/22 09:52:03;;;;;;;8.20;7.37;;;1.70;99.90;;;;;;5215796;28;20514;-47
2023/01/22 09:54:33;;;;;;;8.47;7.57;;;1.70;99.90;;;;;;5220172;28;21192;-46
2023/01/22 09:57:06;;;;;;;9.63;7.47;;;1.70;99.90;;;;;;5222201;28;20451;-47
2023/01/22 09:59:49;;;;;;;13.07;8.40;;;1.80;99.90;;;;;;5203762;28;20183;-45
2023/01/22 10:02:35;;;;;;;10.30;9.20;;;1.80;99.90;;;;;;5203570;28;20452;-49
2023/01/22 10:05:17;;;;;;;10.43;7.70;;;1.80;99.90;;;;;;5197567;28;20837;-45
2023/01/22 10:07:59;;;;;;;12.43;9.10;;;1.80;99.90;;;;;;5204798;28;20490;-46
2023/01/22 10:10:31;;;;;;;15.97;9.87;;;1.80;99.90;;;;;;5223401;28;20441;-52
2023/01/22 10:13:23;;;;;;;13.97;9.37;;;1.90;99.90;;;;;;5224660;28;20797;-46
2023/01/22 10:15:55;;;;;;;10.87;8.73;;;1.80;99.90;;;;;;5204116;28;20485;-46
2023/01/22 10:18:49;;;;;;;13.67;9.60;;;1.80;99.90;;;;;;5200839;28;20477;-45
2023/01/22 10:21:27;;;;;;;15.87;9.57;;;1.70;99.90;;;;;;5202497;28;20432;-46
2023/01/22 10:23:59;;;;;;;13.53;9.60;;;1.70;99.90;;;;;;5203372;28;20469;-47
2023/01/22 10:26:51;;;;;;;9.67;8.30;;;1.70;99.90;;;;;;5204651;28;20520;-48
2023/01/22 10:29:35;;;;;;;11.20;9.20;;;1.80;99.90;;;;;;5223043;28;20438;-45
2023/01/22 10:32:22;;;;;;;11.13;9.37;;;1.80;99.90;;;;;;5207520;28;20471;-48
2023/01/22 10:35:12;;;;;;;12.00;9.50;;;1.80;99.90;;;;;;5204492;28;20572;-50
2023/01/22 10:37:54;;;;;;;10.50;9.10;;;1.80;99.90;;;;;;5205183;28;21453;-48
2023/01/22 10:40:33;;;;;;;10.83;9.60;;;1.80;99.90;;;;;;5220062;28;20509;-47
2023/01/22 10:43:11;;;;;;;15.03;10.13;;;1.90;99.90;;;;;;5222047;28;20541;-50
2023/01/22 10:45:58;;;;;;;15.13;9.90;;;1.80;99.90;;;;;;5198275;28;20469;-46
2023/01/22 10:48:29;;;;;;;12.33;9.50;;;1.90;99.90;;;;;;5198738;28;20439;-46
2023/01/22 10:51:13;;;;;;;10.33;9.00;;;1.90;99.90;;;;;;5198287;28;20437;-48
2023/01/22 10:53:52;;;;;;;11.27;8.90;;;2.00;99.90;;;;;;5204577;28;20513;-47
2023/01/22 10:56:33;;;;;;;14.77;9.70;;;1.90;99.90;;;;;;5223168;28;20494;-46
2023/01/22 10:59:24;;;;;;;9.57;8.60;;;2.00;99.90;;;;;;5209559;28;20441;-45
2023/01/22 11:02:12;;;;;;;12.13;9.47;;;2.00;99.90;;;;;;5199594;28;20434;-47
2023/01/22 11:04:42;;;;;;;14.70;9.30;;;1.90;99.90;;;;;;5217294;28;20570;-47
2023/01/22 11:07:19;;;;;;;14.97;9.53;;;1.90;99.90;;;;;;5206541;28;20530;-47
2023/01/22 11:10:16;;;;;;;14.33;9.70;;;2.00;99.90;;;;;;5208597;28;20193;-46
2023/01/22 11:13:15;;;;;;;12.27;9.87;;;2.00;99.90;;;;;;5218928;28;20468;-47
2023/01/22 11:15:52;;;;;;;14.90;9.90;;;2.00;99.90;;;;;;5176038;28;20455;-47
2023/01/22 11:18:44;;;;;;;13.57;9.30;;;2.10;99.90;;;;;;5221022;28;20471;-46
2023/01/22 11:21:36;;;;;;;15.97;10.60;;;2.10;99.90;;;;;;5220042;28;20433;-47
2023/01/22 11:24:23;;;;;;;11.27;8.77;;;2.20;99.90;;;;;;5220497;28;20445;-50
2023/01/22 11:27:29;;;;;;;16.77;9.17;;;2.10;99.90;;;;;;5219805;28;20503;-46
2023/01/22 11:30:02;;;;;;;17.70;10.30;;;2.00;99.90;;;;;;5220377;28;20433;-46
2023/01/22 11:32:57;;;;;;;17.63;10.73;;;2.00;99.90;;;;;;5206073;28;20586;-48
2023/01/22 11:36:07;;;;;;;12.20;9.77;;;2.00;99.90;;;;;;5202012;28;21020;-48
2023/01/22 11:38:50;;;;;;;10.70;8.70;;;2.00;99.90;;;;;;5207915;28;20992;-47
2023/01/22 11:41:59;;;;;;;12.00;9.10;;;2.00;99.90;;;;;;5223297;28;20919;-47
2023/01/22 11:44:54;;;;;;;13.90;9.40;;;1.90;99.90;;;;;;5111524;29;20465;-46
2023/01/22 11:47:48;;;;;;;11.87;9.47;;;2.00;99.90;;;;;;5103135;29;20804;-47
2023/01/22 11:50:38;;;;;;;14.90;9.53;;;1.90;99.90;;;;;;5195229;28;20434;-47
2023/01/22 11:53:41;;;;;;;19.93;11.03;;;2.00;99.90;;;;;;5226060;28;20493;-46
2023/01/22 11:56:56;;;;;;;15.63;10.60;;;2.00;99.90;;;;;;5188207;28;20464;-46
2023/01/22 11:59:39;;;;;;;18.53;10.73;;;2.10;99.90;;;;;;5210793;28;20537;-45
2023/01/22 12:02:35;;;;;;;13.47;9.87;;;2.10;99.90;;;;;;5202490;28;20441;-45
2023/01/22 12:05:26;;;;;;;12.30;9.47;;;2.00;99.90;;;;;;5213297;28;20809;-48
2023/01/22 12:08:07;;;;;;;17.57;10.30;;;2.10;99.90;;;;;;5207027;28;20940;-46
2023/01/22 12:11:03;;;;;;;15.10;10.40;;;2.00;99.90;;;;;;5203590;28;20446;-50
2023/01/22 12:13:55;;;;;;;14.23;10.93;;;2.00;99.90;;;;;;5207423;28;22158;-49
2023/01/22 12:16:51;;;;;;;13.80;10.40;;;2.00;99.90;;;;;;5222727;28;20448;-49
2023/01/22 12:19:39;;;;;;;13.97;10.20;;;2.00;99.90;;;;;;5215831;28;20438;-49
2023/01/22 12:22:48;;;;;;;22.53;11.67;;;2.00;99.90;;;;;;5220937;28;20442;-47
2023/01/22 12:25:30;;;;;;;16.70;11.20;;;1.90;99.90;;;;;;5221243;28;20464;-50
2023/01/22 12:28:07;;;;;;;13.10;10.23;;;1.90;99.90;;;;;;5208915;28;20483;-50
2023/01/22 12:31:03;;;;;;;14.20;10.90;;;1.90;99.90;;;;;;5205821;28;20456;-48
2023/01/22 12:33:39;;;;;;;13.33;10.30;;;1.80;99.90;;;;;;5203563;28;20475;-49
2023/01/22 12:36:15;;;;;;;14.83;11.00;;;1.90;99.90;;;;;;5216087;28;20460;-48
2023/01/22 12:38:48;;;;;;;17.97;11.77;;;1.90;99.90;;;;;;5208227;28;20445;-49
2023/01/22 12:41:43;;;;;;;18.30;11.77;;;1.90;99.90;;;;;;5217511;28;20528;-48
2023/01/22 12:44:32;;;;;;;20.53;12.57;;;1.80;99.90;;;;;;5218860;28;20514;-49
2023/01/22 12:47:09;;;;;;;17.40;12.23;;;1.90;99.90;;;;;;5212334;28;20477;-49
2023/01/22 12:49:45;;;;;;;17.87;11.50;;;1.90;99.90;;;;;;5217100;28;20524;-47
2023/01/22 12:52:30;;;;;;;18.77;12.20;;;1.90;99.90;;;;;;5204938;28;20450;-50
2023/01/22 12:55:23;;;;;;;22.87;12.80;;;1.90;99.90;;;;;;5229857;22;20729;-55
2023/01/22 12:57:53;;;;;;;19.77;12.50;;;1.90;99.90;;;;;;5159963;28;20514;-58
2023/01/22 13:00:33;;;;;;;18.13;11.90;;;1.90;99.90;;;;;;5182093;28;20838;-56
2023/01/22 13:03:26;;;;;;;22.23;13.43;;;1.90;99.90;;;;;;5207747;28;20191;-55
2023/01/22 13:05:58;;;;;;;22.47;14.00;;;1.90;99.90;;;;;;5197553;28;20467;-54
2023/01/22 13:08:41;;;;;;;21.20;12.37;;;1.80;99.90;;;;;;5185442;28;20460;-54
2023/01/22 13:11:25;;;;;;;23.17;14.07;;;1.80;99.90;;;;;;5202297;28;20449;-53
2023/01/22 13:14:17;;;;;;;32.93;14.80;;;1.80;99.90;;;;;;5200909;28;20499;-54
2023/01/22 13:16:51;;;;;;;20.73;13.57;;;1.70;99.90;;;;;;5197789;28;20489;-56
2023/01/22 13:19:28;;;;;;;26.60;15.50;;;1.80;99.90;;;;;;5194384;28;20435;-55
2023/01/22 13:21:59;;;;;;;22.50;14.50;;;1.90;99.90;;;;;;5199282;28;20430;-54
2023/01/22 13:24:30;;;;;;;23.23;13.60;;;1.70;99.90;;;;;;5185304;28;20521;-54
2023/01/22 13:27:02;;;;;;;28.40;16.10;;;1.80;99.90;;;;;;5184283;28;20521;-53
2023/01/22 13:29:36;;;;;;;20.43;13.60;;;1.80;99.90;;;;;;5189029;28;20234;-53